Time;durP1;ratioP1;P1;durP2;ratioP2;P2;SDS_P1;SDS_P2;PMS_P1;PMS_P2;Temp;Humidity;BMP_temperature;BMP_pressure;BME280_temperature;BME280_humidity;BME280_pressure;Samples;Min_cycle;Max_cycle;Signal;HPM_P1;HPM_P2
2021/07/06 00:01:57;;;;;;;5.50;3.25;;;;;;;23.54;62.46;99859.95;1764138;79;21047;-68
2021/07/06 00:04:23;;;;;;;5.87;3.40;;;;;;;23.49;62.86;99861.95;1770400;80;21525;-68
2021/07/06 00:06:49;;;;;;;5.55;3.30;;;;;;;23.44;63.06;99860.45;1748527;80;21625;-71
2021/07/06 00:09:17;;;;;;;5.42;3.00;;;;;;;23.47;63.04;99871.25;1762535;80;21075;-68
2021/07/06 00:11:43;;;;;;;7.70;3.98;;;;;;;23.50;62.75;99870.32;1708045;82;21100;-70
2021/07/06 00:14:10;;;;;;;7.12;3.17;;;;;;;23.50;62.77;99876.19;1742569;80;21804;-68
2021/07/06 00:16:37;;;;;;;5.83;3.83;;;;;;;23.46;62.88;99867.76;1754375;79;21055;-69
2021/07/06 00:19:04;;;;;;;5.70;3.52;;;;;;;23.45;62.80;99868.82;1770793;80;21875;-69
2021/07/06 00:21:30;;;;;;;7.35;3.80;;;;;;;23.41;62.98;99872.97;1754007;80;21378;-68
2021/07/06 00:23:56;;;;;;;6.35;3.70;;;;;;;23.38;62.81;99866.69;1760011;80;21015;-68
2021/07/06 00:26:22;;;;;;;6.87;3.92;;;;;;;23.40;63.00;99869.16;1755220;81;21034;-67
2021/07/06 00:28:49;;;;;;;7.58;4.47;;;;;;;23.45;62.97;99869.31;1755361;81;21529;-69
2021/07/06 00:31:15;;;;;;;5.67;3.52;;;;;;;23.48;62.98;99873.72;1758053;81;21129;-71
2021/07/06 00:33:41;;;;;;;8.40;3.77;;;;;;;23.48;63.13;99867.02;1762130;81;21501;-68
2021/07/06 00:36:09;;;;;;;6.50;3.72;;;;;;;23.49;63.29;99876.72;1754943;81;21034;-68
2021/07/06 00:38:35;;;;;;;6.45;3.85;;;;;;;23.49;63.48;99876.72;1762694;81;21294;-69
2021/07/06 00:41:02;;;;;;;6.62;3.52;;;;;;;23.47;62.92;99875.28;1684941;83;21137;-68
2021/07/06 00:43:30;;;;;;;7.35;3.75;;;;;;;23.45;62.87;99880.05;1681194;83;21126;-68
2021/07/06 00:45:58;;;;;;;6.20;3.35;;;;;;;23.39;62.93;99880.42;1680292;83;21537;-69
2021/07/06 00:48:27;;;;;;;7.15;4.03;;;;;;;23.34;63.16;99882.95;1763247;81;21715;-68
2021/07/06 00:50:54;;;;;;;6.22;3.52;;;;;;;23.34;63.13;99889.13;1762551;81;21514;-67
2021/07/06 00:53:20;;;;;;;5.42;3.47;;;;;;;23.37;63.10;99886.55;1752918;81;21033;-68
2021/07/06 00:55:51;;;;;;;8.18;3.80;;;;;;;23.37;62.96;99887.88;1756859;81;21147;-68
2021/07/06 00:58:17;;;;;;;7.10;4.17;;;;;;;23.31;62.94;99893.59;1756713;81;21047;-68
2021/07/06 01:00:44;;;;;;;6.35;3.65;;;;;;;23.29;63.23;99889.50;1730254;81;20984;-68
2021/07/06 01:03:10;;;;;;;5.75;3.90;;;;;;;23.26;63.34;99890.73;1724326;82;21036;-69
2021/07/06 01:05:38;;;;;;;6.25;3.77;;;;;;;23.25;63.12;99887.77;1711253;82;21579;-67
2021/07/06 01:08:08;;;;;;;6.35;3.20;;;;;;;23.22;63.22;99894.91;1723469;81;21730;-67
2021/07/06 01:10:36;;;;;;;7.75;3.33;;;;;;;23.21;63.35;99895.13;1686221;83;21043;-68
2021/07/06 01:13:04;;;;;;;7.95;3.65;;;;;;;23.19;63.22;99902.05;1751993;80;21049;-67
2021/07/06 01:15:31;;;;;;;7.37;4.05;;;;;;;23.18;63.34;99901.73;1753121;80;21533;-68
2021/07/06 01:18:14;;;;;;;6.45;4.00;;;;;;;23.18;62.97;99905.77;1750028;81;21034;-67
2021/07/06 01:20:50;;;;;;;8.85;4.10;;;;;;;23.14;63.40;99905.91;1755289;80;21978;-67
2021/07/06 01:23:17;;;;;;;6.17;3.92;;;;;;;23.07;63.47;99908.64;1763390;80;21135;-69
2021/07/06 01:25:44;;;;;;;8.85;4.05;;;;;;;23.02;63.53;99911.64;1680890;83;21072;-68
2021/07/06 01:28:11;;;;;;;7.28;3.27;;;;;;;23.01;63.65;99917.51;1767131;79;21820;-68
2021/07/06 01:30:37;;;;;;;7.42;3.77;;;;;;;23.06;63.65;99911.00;1734879;79;22333;-68
2021/07/06 01:33:04;;;;;;;8.15;3.72;;;;;;;23.06;63.81;99913.69;1765923;79;21095;-70
2021/07/06 01:35:31;;;;;;;6.17;3.87;;;;;;;23.01;63.92;99912.14;1771803;79;21545;-69
2021/07/06 01:38:00;;;;;;;6.75;3.22;;;;;;;22.98;63.84;99918.78;1732382;80;21046;-69
2021/07/06 01:40:28;;;;;;;6.25;3.87;;;;;;;22.95;63.97;99927.78;1739789;80;21034;-69
2021/07/06 01:42:55;;;;;;;5.87;3.75;;;;;;;22.93;64.48;99923.97;1759324;79;21031;-68
2021/07/06 01:45:24;;;;;;;6.00;3.42;;;;;;;22.94;64.59;99930.96;1765294;80;21131;-69
2021/07/06 01:47:52;;;;;;;5.30;3.10;;;;;;;22.98;64.29;99931.35;1742974;80;21047;-71
2021/07/06 01:50:25;;;;;;;5.45;3.87;;;;;;;22.98;64.10;99932.69;1728744;82;21099;-69
2021/07/06 01:52:55;;;;;;;6.40;3.98;;;;;;;22.94;64.36;99936.86;1755122;80;21055;-67
2021/07/06 01:55:27;;;;;;;6.42;4.03;;;;;;;22.88;64.32;99936.36;1735101;81;21096;-67
2021/07/06 01:57:55;;;;;;;10.88;4.53;;;;;;;22.82;64.71;99933.50;1775281;79;21124;-67
2021/07/06 02:00:25;;;;;;;5.33;3.42;;;;;;;22.81;64.54;99942.61;1761641;79;21387;-69
2021/07/06 02:02:58;;;;;;;7.42;3.72;;;;;;;22.81;64.33;99935.05;1773030;80;21666;-68
2021/07/06 02:05:39;;;;;;;6.10;3.60;;;;;;;22.79;64.40;99942.50;1733610;80;21050;-68
2021/07/06 02:08:08;;;;;;;6.83;4.08;;;;;;;22.74;64.67;99943.66;1759863;79;21533;-69
2021/07/06 02:10:35;;;;;;;9.15;4.33;;;;;;;22.68;64.72;99941.33;1756570;80;22204;-68
2021/07/06 02:13:02;;;;;;;5.62;3.52;;;;;;;22.63;65.02;99948.66;1761617;80;21337;-66
2021/07/06 02:15:30;;;;;;;6.60;4.25;;;;;;;22.62;64.85;99954.23;1697102;82;21056;-67
2021/07/06 02:17:57;;;;;;;7.40;3.87;;;;;;;22.66;64.82;99959.46;1746857;80;21125;-67
2021/07/06 02:20:23;;;;;;;9.30;3.95;;;;;;;22.73;64.95;99965.64;1771141;80;21101;-68
2021/07/06 02:22:50;;;;;;;5.28;3.62;;;;;;;22.77;64.68;99964.17;1698351;82;22814;-69
2021/07/06 02:25:18;;;;;;;7.00;4.15;;;;;;;22.78;64.75;99965.83;1750750;80;21023;-68
2021/07/06 02:27:47;;;;;;;7.45;4.17;;;;;;;22.78;64.64;99967.70;1761386;80;21078;-68
2021/07/06 02:30:17;;;;;;;6.65;4.03;;;;;;;22.74;64.62;99961.91;1763041;80;21054;-68
2021/07/06 02:32:44;;;;;;;7.97;3.62;;;;;;;22.72;64.67;99963.98;1773111;80;21059;-68
2021/07/06 02:35:11;;;;;;;5.92;3.50;;;;;;;22.76;64.60;99964.38;1758198;80;21087;-69
2021/07/06 02:37:38;;;;;;;7.75;3.92;;;;;;;22.79;64.50;99966.11;1764008;79;21079;-68
2021/07/06 02:40:07;;;;;;;6.15;3.55;;;;;;;22.82;64.58;99961.67;1756965;79;21577;-68
2021/07/06 02:42:33;;;;;;;7.15;3.85;;;;;;;22.86;64.35;99965.27;1780127;80;21035;-67
2021/07/06 02:45:02;;;;;;;6.28;3.77;;;;;;;22.85;64.16;99965.80;1770729;80;21332;-68
2021/07/06 02:47:29;;;;;;;5.85;3.85;;;;;;;22.85;64.18;99966.30;1773366;79;21129;-67
2021/07/06 02:49:55;;;;;;;5.67;4.12;;;;;;;22.85;64.36;99963.11;1711771;82;21354;-68
2021/07/06 02:52:22;;;;;;;6.65;3.58;;;;;;;22.89;64.24;99962.98;1778785;79;21027;-67
2021/07/06 02:54:49;;;;;;;9.03;4.03;;;;;;;22.96;64.00;99965.13;1684003;82;21055;-70
2021/07/06 02:57:37;;;;;;;6.08;3.85;;;;;;;22.99;63.73;99966.02;1773321;79;21027;-68
2021/07/06 03:00:22;;;;;;;6.97;4.28;;;;;;;22.97;63.87;99968.63;1697159;82;21191;-68
2021/07/06 03:02:54;;;;;;;6.10;3.90;;;;;;;22.99;63.87;99967.88;1767857;79;21310;-68
2021/07/06 03:05:22;;;;;;;8.03;3.80;;;;;;;22.96;63.97;99968.31;1756941;80;22177;-68
2021/07/06 03:07:49;;;;;;;5.40;3.50;;;;;;;22.98;63.82;99976.95;1763376;79;21604;-68
2021/07/06 03:10:21;;;;;;;7.72;4.17;;;;;;;23.03;63.72;99973.11;1761273;79;21006;-68
2021/07/06 03:12:47;;;;;;;6.15;4.50;;;;;;;23.05;63.69;99975.09;1766934;80;21126;-68
2021/07/06 03:15:17;;;;;;;7.30;4.15;;;;;;;23.02;63.67;99979.53;1760329;79;21039;-69
2021/07/06 03:17:44;;;;;;;6.83;3.77;;;;;;;22.99;63.61;99979.95;1744403;80;21089;-69
2021/07/06 03:20:12;;;;;;;5.65;3.67;;;;;;;22.95;63.66;99981.44;1776364;79;21382;-68
2021/07/06 03:22:39;;;;;;;7.92;4.30;;;;;;;22.93;64.01;99982.98;1727783;80;21055;-69
2021/07/06 03:25:08;;;;;;;9.75;4.42;;;;;;;22.96;64.00;99989.77;1771582;80;21566;-68
2021/07/06 03:27:38;;;;;;;8.63;4.50;;;;;;;22.99;63.95;99991.50;1772470;79;21047;-69
2021/07/06 03:30:12;;;;;;;7.03;4.22;;;;;;;23.07;64.02;99989.13;1772578;80;21038;-70
2021/07/06 03:32:39;;;;;;;6.92;4.65;;;;;;;23.13;64.21;99990.97;1764068;79;21070;-68
2021/07/06 03:35:07;;;;;;;8.20;4.33;;;;;;;23.17;63.79;99986.80;1765181;80;21071;-68
2021/07/06 03:37:35;;;;;;;8.15;4.12;;;;;;;23.24;63.68;99992.66;1768387;79;21132;-68
2021/07/06 03:40:05;;;;;;;6.12;4.33;;;;;;;23.26;63.59;99991.92;1745718;79;21114;-72
2021/07/06 03:42:33;;;;;;;6.95;4.20;;;;;;;23.25;63.43;99991.61;1757212;79;21094;-69
2021/07/06 03:45:02;;;;;;;6.47;3.85;;;;;;;23.29;63.44;99992.31;1771299;79;21094;-68
2021/07/06 03:47:28;;;;;;;9.48;5.03;;;;;;;23.34;63.52;99997.03;1758035;79;21378;-70
2021/07/06 03:49:55;;;;;;;6.97;4.08;;;;;;;23.36;63.18;100002.47;1774869;80;21068;-68
2021/07/06 03:52:21;;;;;;;5.85;4.00;;;;;;;23.36;62.97;100008.38;1771689;80;21477;-68
2021/07/06 03:54:47;;;;;;;10.35;4.30;;;;;;;23.32;63.06;100005.83;1745177;80;21065;-69
2021/07/06 03:57:14;;;;;;;6.85;4.50;;;;;;;23.30;63.36;100001.17;1739496;80;21030;-68
2021/07/06 03:59:41;;;;;;;5.45;3.72;;;;;;;23.31;63.35;100001.49;1770961;80;21062;-69
2021/07/06 04:02:08;;;;;;;8.63;4.70;;;;;;;23.35;63.38;100006.72;1706227;82;21138;-69
2021/07/06 04:04:34;;;;;;;10.20;3.75;;;;;;;23.41;63.15;100013.10;1773185;80;20990;-68
2021/07/06 04:07:00;;;;;;;7.60;4.67;;;;;;;23.43;63.19;100009.67;1769099;80;21057;-69
2021/07/06 04:09:28;;;;;;;7.72;4.65;;;;;;;23.44;63.20;100008.65;1760829;80;21055;-69
2021/07/06 04:11:54;;;;;;;5.95;3.95;;;;;;;23.44;63.03;100012.14;1764656;79;21101;-69
2021/07/06 04:14:20;;;;;;;6.53;4.45;;;;;;;23.42;63.25;100016.08;1721081;82;21046;-68
2021/07/06 04:16:48;;;;;;;7.92;4.62;;;;;;;23.42;63.56;100016.08;1762538;80;21331;-68
2021/07/06 04:19:15;;;;;;;7.58;5.08;;;;;;;23.45;63.28;100011.12;1776112;80;21078;-69
2021/07/06 04:21:41;;;;;;;8.55;5.03;;;;;;;23.54;63.37;100011.67;1770233;79;21050;-70
2021/07/06 04:24:07;;;;;;;9.50;6.72;;;;;;;23.62;63.02;100012.75;1776165;79;21121;-69
2021/07/06 04:26:34;;;;;;;7.47;4.92;;;;;;;23.69;63.16;100014.05;1769586;80;22265;-71
2021/07/06 04:29:01;;;;;;;9.53;5.62;;;;;;;23.75;63.07;100019.87;1768624;79;21039;-69
2021/07/06 04:31:27;;;;;;;9.68;4.85;;;;;;;23.78;63.04;100016.75;1709317;82;21046;-69
2021/07/06 04:33:53;;;;;;;8.45;5.92;;;;;;;23.83;62.99;100025.02;1775266;80;21032;-68
2021/07/06 04:36:20;;;;;;;8.28;5.35;;;;;;;23.84;62.76;100023.98;1772132;80;21707;-67
2021/07/06 04:38:47;;;;;;;8.03;5.20;;;;;;;23.86;62.41;100024.58;1780245;80;21103;-71
2021/07/06 04:41:13;;;;;;;6.22;4.37;;;;;;;23.86;62.55;100027.27;1762742;80;21090;-70
2021/07/06 04:43:40;;;;;;;11.15;5.15;;;;;;;23.91;62.45;100026.61;1765572;80;21445;-68
2021/07/06 04:46:06;;;;;;;8.48;5.42;;;;;;;23.91;62.36;100029.30;1767472;80;21026;-70
2021/07/06 04:48:33;;;;;;;7.30;4.80;;;;;;;23.91;62.19;100031.45;1774594;80;21043;-70
2021/07/06 04:51:05;;;;;;;7.00;4.85;;;;;;;23.88;61.96;100026.52;1762780;80;21168;-69
2021/07/06 04:53:27;;;;;;;7.95;5.53;;;;;;;23.86;62.14;100028.61;1748105;80;21075;-69
2021/07/06 04:55:53;;;;;;;7.03;4.75;;;;;;;23.84;62.19;100031.20;1759614;79;21101;-69
2021/07/06 04:58:20;;;;;;;8.23;5.05;;;;;;;23.85;62.21;100033.67;1764900;80;21116;-67
2021/07/06 05:00:47;;;;;;;9.70;5.00;;;;;;;23.88;62.45;100031.08;1771725;80;21039;-67
2021/07/06 05:03:14;;;;;;;7.65;5.20;;;;;;;23.93;62.52;100029.90;1768056;80;21644;-68
2021/07/06 05:05:41;;;;;;;8.65;4.80;;;;;;;23.97;62.55;100028.94;1768590;80;21093;-71
2021/07/06 05:08:11;;;;;;;8.33;5.47;;;;;;;24.04;62.62;100033.22;1766491;80;21019;-69
2021/07/06 05:10:38;;;;;;;8.93;5.50;;;;;;;24.07;62.51;100036.81;1765239;79;21049;-71
2021/07/06 05:13:05;;;;;;;11.05;5.75;;;;;;;24.11;62.57;100030.48;1769485;79;22193;-68
2021/07/06 05:15:32;;;;;;;7.17;5.22;;;;;;;24.19;62.74;100032.88;1773353;79;21132;-70
2021/07/06 05:17:59;;;;;;;9.13;5.70;;;;;;;24.28;62.13;100019.44;1686601;83;21831;-71
2021/07/06 05:20:25;;;;;;;10.00;5.80;;;;;;;24.28;61.96;100024.01;1762992;78;21069;-69
2021/07/06 05:22:52;;;;;;;8.90;6.28;;;;;;;24.27;62.33;100020.48;1761491;78;20994;-68
2021/07/06 05:25:19;;;;;;;8.23;5.00;;;;;;;24.28;62.22;100032.88;1692147;83;22309;-67
2021/07/06 05:27:45;;;;;;;6.30;4.47;;;;;;;24.27;62.15;100027.20;1689800;82;21106;-71
2021/07/06 05:30:14;;;;;;;7.15;5.25;;;;;;;24.24;61.79;100029.02;1755098;79;21086;-68
2021/07/06 05:32:40;;;;;;;11.78;5.55;;;;;;;24.20;62.16;100031.02;1755725;79;22143;-70
2021/07/06 05:35:08;;;;;;;10.18;4.87;;;;;;;24.20;62.32;100029.14;1757185;79;21102;-68
2021/07/06 05:37:36;;;;;;;6.95;5.37;;;;;;;24.29;62.15;100025.13;1757587;79;21090;-67
2021/07/06 05:40:10;;;;;;;6.90;4.87;;;;;;;24.37;62.09;100019.97;1757305;79;23033;-68
2021/07/06 05:42:37;;;;;;;8.80;6.15;;;;;;;24.43;62.14;100025.00;1753030;79;21394;-70
2021/07/06 05:45:04;;;;;;;9.23;5.37;;;;;;;24.43;61.82;100035.75;1729427;79;20959;-70
2021/07/06 05:47:35;;;;;;;8.53;5.42;;;;;;;24.43;61.95;100032.53;1732133;81;21019;-68
2021/07/06 05:50:08;;;;;;;10.72;6.12;;;;;;;24.47;61.77;100036.94;1738140;81;21148;-68
2021/07/06 05:52:35;;;;;;;8.85;5.75;;;;;;;24.53;61.68;100043.28;1750383;80;21835;-72
2021/07/06 05:55:02;;;;;;;7.35;5.40;;;;;;;24.55;61.46;100042.06;1753930;80;22320;-68
2021/07/06 05:57:32;;;;;;;7.17;5.67;;;;;;;24.59;61.24;100045.94;1758607;79;21249;-71
2021/07/06 06:00:04;;;;;;;8.53;5.37;;;;;;;24.66;61.21;100052.09;1754616;79;21777;-67
2021/07/06 06:02:32;;;;;;;8.95;5.55;;;;;;;24.73;61.30;100041.25;1670581;82;21028;-68
2021/07/06 06:04:59;;;;;;;8.18;5.87;;;;;;;24.75;60.91;100053.14;1708266;83;21128;-69
2021/07/06 06:07:27;;;;;;;9.15;5.80;;;;;;;24.71;60.87;100054.61;1674924;82;22188;-68
2021/07/06 06:09:53;;;;;;;8.30;5.05;;;;;;;24.70;61.02;100058.38;1754706;79;21285;-67
2021/07/06 06:12:21;;;;;;;7.97;6.12;;;;;;;24.66;60.87;100057.47;1741466;80;21579;-70
2021/07/06 06:14:48;;;;;;;8.78;5.83;;;;;;;24.62;60.92;100060.82;1760186;79;21079;-68
2021/07/06 06:17:14;;;;;;;12.15;5.47;;;;;;;24.62;61.02;100066.20;1752299;79;23431;-66
2021/07/06 06:19:41;;;;;;;7.87;5.00;;;;;;;24.64;61.12;100063.57;1755423;79;21110;-71
2021/07/06 06:22:07;;;;;;;8.60;5.72;;;;;;;24.70;61.01;100068.60;1762212;79;21023;-68
2021/07/06 06:24:33;;;;;;;10.48;6.30;;;;;;;24.76;60.98;100068.22;1733327;80;21050;-69
2021/07/06 06:27:00;;;;;;;6.67;5.45;;;;;;;24.80;61.12;100067.55;1762799;79;21034;-69
2021/07/06 06:29:26;;;;;;;8.10;6.00;;;;;;;24.85;60.56;100065.01;1763677;80;21143;-66
2021/07/06 06:31:53;;;;;;;9.35;5.97;;;;;;;24.89;60.65;100069.41;1769239;79;21086;-67
2021/07/06 06:34:19;;;;;;;12.43;6.00;;;;;;;24.95;60.93;100069.87;1762327;80;21030;-66
2021/07/06 06:36:45;;;;;;;7.45;4.65;;;;;;;24.96;60.50;100074.19;1763970;79;21026;-67
2021/07/06 06:39:12;;;;;;;8.25;5.62;;;;;;;24.96;60.61;100075.53;1764187;80;21585;-68
2021/07/06 06:41:39;;;;;;;9.63;5.72;;;;;;;25.02;60.64;100072.48;1768463;80;21219;-68
2021/07/06 06:44:05;;;;;;;8.68;5.75;;;;;;;25.06;60.67;100079.05;1739990;80;21086;-66
2021/07/06 06:46:33;;;;;;;8.30;5.83;;;;;;;25.09;60.32;100075.91;1760626;80;21039;-71
2021/07/06 06:49:04;;;;;;;8.50;5.97;;;;;;;25.12;59.96;100069.27;1765041;79;21627;-69
2021/07/06 06:51:28;;;;;;;9.43;6.35;;;;;;;25.12;59.96;100063.87;1767993;80;21083;-68
2021/07/06 06:53:54;;;;;;;8.08;5.90;;;;;;;25.11;60.14;100063.03;1767024;79;21183;-67
2021/07/06 06:56:20;;;;;;;8.23;6.40;;;;;;;25.09;60.51;100058.41;1714161;82;21056;-66
2021/07/06 06:58:47;;;;;;;11.25;6.12;;;;;;;25.11;60.40;100063.03;1766861;79;21552;-66
2021/07/06 07:01:13;;;;;;;7.72;6.58;;;;;;;25.19;60.21;100060.03;1767714;79;21075;-67
2021/07/06 07:03:44;;;;;;;10.95;6.62;;;;;;;25.27;60.09;100063.48;1757955;79;21072;-68
2021/07/06 07:06:10;;;;;;;8.58;6.00;;;;;;;25.34;59.69;100062.89;1766721;79;21125;-70
2021/07/06 07:08:37;;;;;;;7.53;5.80;;;;;;;25.40;59.85;100073.57;1767753;79;21008;-71
2021/07/06 07:11:03;;;;;;;10.43;5.92;;;;;;;25.45;59.81;100068.02;1742006;80;20971;-66
2021/07/06 07:13:29;;;;;;;16.12;7.00;;;;;;;25.50;59.52;100068.98;1715936;82;21012;-67
2021/07/06 07:15:56;;;;;;;8.43;6.70;;;;;;;25.53;59.14;100066.34;1716798;82;20981;-67
2021/07/06 07:18:22;;;;;;;12.25;6.58;;;;;;;25.53;59.45;100065.81;1761489;79;22158;-68
2021/07/06 07:20:49;;;;;;;8.83;5.60;;;;;;;25.52;59.51;100064.69;1716267;82;20997;-68
2021/07/06 07:23:16;;;;;;;8.30;5.78;;;;;;;25.55;60.01;100069.62;1766751;79;21435;-66
2021/07/06 07:25:42;;;;;;;10.53;6.03;;;;;;;25.64;59.54;100070.11;1762603;79;21005;-66
2021/07/06 07:28:09;;;;;;;8.50;6.40;;;;;;;25.72;59.33;100073.33;1760275;79;21030;-69
2021/07/06 07:30:35;;;;;;;12.58;6.97;;;;;;;25.83;58.95;100074.92;1761578;80;22282;-69
2021/07/06 07:33:02;;;;;;;9.43;6.25;;;;;;;25.92;58.50;100076.22;1738236;80;21082;-68
2021/07/06 07:35:28;;;;;;;8.53;6.72;;;;;;;26.00;58.42;100073.76;1764847;79;21361;-66
2021/07/06 07:37:55;;;;;;;9.48;6.40;;;;;;;26.06;58.38;100075.53;1762224;79;21043;-69
2021/07/06 07:40:21;;;;;;;10.98;6.37;;;;;;;26.07;58.34;100077.16;1763180;80;21353;-68
2021/07/06 07:42:50;;;;;;;8.83;6.40;;;;;;;26.09;58.60;100073.19;1767144;79;21545;-67
2021/07/06 07:45:17;;;;;;;9.30;6.92;;;;;;;26.13;58.21;100077.05;1742174;80;21093;-68
2021/07/06 07:47:46;;;;;;;9.03;6.05;;;;;;;26.12;58.39;100082.13;1760712;80;21106;-69
2021/07/06 07:50:12;;;;;;;7.42;5.40;;;;;;;26.16;58.45;100086.56;1760040;80;21792;-68
2021/07/06 07:52:39;;;;;;;8.25;6.25;;;;;;;26.29;58.60;100084.98;1770483;80;20999;-69
2021/07/06 07:55:07;;;;;;;9.90;6.53;;;;;;;26.42;58.24;100084.45;1737450;80;21383;-70
2021/07/06 07:57:34;;;;;;;7.75;6.37;;;;;;;26.54;58.03;100088.49;1764110;79;21570;-68
2021/07/06 08:00:00;;;;;;;7.72;5.65;;;;;;;26.58;57.63;100087.80;1766230;79;21470;-68
2021/07/06 08:02:27;;;;;;;7.28;5.58;;;;;;;26.63;57.58;100087.09;1740293;79;21042;-68
2021/07/06 08:04:53;;;;;;;7.12;5.65;;;;;;;26.76;57.22;100086.03;1768603;80;21038;-70
2021/07/06 08:07:20;;;;;;;8.28;5.62;;;;;;;26.87;57.13;100077.91;1736388;80;21750;-67
2021/07/06 08:09:47;;;;;;;7.87;6.12;;;;;;;26.97;57.11;100085.95;1715049;82;21080;-68
2021/07/06 08:12:14;;;;;;;10.65;6.37;;;;;;;27.08;57.04;100085.08;1748680;80;20983;-69
2021/07/06 08:14:41;;;;;;;8.20;6.53;;;;;;;27.13;56.85;100083.02;1773221;80;20996;-70
2021/07/06 08:17:07;;;;;;;7.60;6.40;;;;;;;27.18;56.41;100087.97;1716930;82;21096;-70
2021/07/06 08:19:34;;;;;;;9.03;5.97;;;;;;;27.18;56.46;100085.81;1769826;80;21213;-67
2021/07/06 08:22:00;;;;;;;9.73;6.95;;;;;;;27.23;56.94;100081.86;1714181;80;20943;-67
2021/07/06 08:24:27;;;;;;;7.70;5.60;;;;;;;27.31;56.67;100082.05;1759683;80;21043;-68
2021/07/06 08:26:53;;;;;;;7.47;5.08;;;;;;;27.39;56.45;100083.02;1757698;80;21113;-67
2021/07/06 08:29:19;;;;;;;7.83;5.58;;;;;;;27.49;55.98;100083.20;1757080;79;21234;-69
2021/07/06 08:31:46;;;;;;;6.78;5.97;;;;;;;27.55;55.62;100085.45;1731688;80;21161;-69
2021/07/06 08:34:13;;;;;;;13.85;11.50;;;;;;;27.56;55.20;100092.52;1702089;82;21059;-68
2021/07/06 08:38:31;;;;;;;10.58;9.50;;;;;;;27.53;54.91;100076.78;1802080;77;23131;-67
2021/07/06 08:40:58;;;;;;;13.95;10.48;;;;;;;27.45;55.59;100087.98;1774942;78;21482;-67
2021/07/06 08:43:24;;;;;;;9.63;8.40;;;;;;;27.48;55.81;100086.95;1772576;80;21466;-67
2021/07/06 08:45:51;;;;;;;10.93;9.68;;;;;;;27.50;55.32;100088.88;1772392;78;20967;-66
2021/07/06 08:48:17;;;;;;;10.48;8.88;;;;;;;27.55;55.64;100083.56;1764932;78;20992;-69
2021/07/06 08:50:46;;;;;;;10.78;8.25;;;;;;;27.61;55.71;100089.36;1767378;79;21029;-67
2021/07/06 08:53:12;;;;;;;8.25;6.35;;;;;;;27.68;55.67;100093.27;1764908;79;20954;-65
2021/07/06 08:55:39;;;;;;;9.05;6.30;;;;;;;27.75;55.35;100090.41;1765377;80;21480;-70
2021/07/06 08:58:05;;;;;;;9.78;6.70;;;;;;;27.77;54.56;100095.03;1771423;79;20987;-69
2021/07/06 09:00:32;;;;;;;8.08;6.42;;;;;;;27.77;55.20;100090.98;1771943;78;21710;-69
2021/07/06 09:03:05;;;;;;;7.22;5.90;;;;;;;27.87;55.41;100095.20;1765942;80;21353;-69
2021/07/06 09:05:33;;;;;;;9.20;6.95;;;;;;;28.00;55.38;100094.11;1761062;78;21058;-68
2021/07/06 09:08:00;;;;;;;9.40;7.12;;;;;;;28.09;54.74;100088.59;1770352;80;21221;-68
2021/07/06 09:10:34;;;;;;;8.73;6.17;;;;;;;28.14;54.60;100095.43;1765914;79;21081;-68
2021/07/06 09:13:00;;;;;;;7.90;5.58;;;;;;;28.12;53.54;100091.31;1743700;79;21055;-68
2021/07/06 09:15:32;;;;;;;7.12;5.47;;;;;;;28.08;54.14;100093.70;1767259;78;21065;-69
2021/07/06 09:18:17;;;;;;;8.58;5.95;;;;;;;28.04;54.18;100091.22;1743484;80;21145;-68
2021/07/06 09:21:05;;;;;;;11.93;5.60;;;;;;;28.00;53.72;100087.89;1778714;78;21182;-72
2021/07/06 09:23:37;;;;;;;7.12;5.00;;;;;;;27.90;54.54;100085.25;1764310;79;21471;-67
2021/07/06 09:26:08;;;;;;;7.30;5.47;;;;;;;27.92;54.06;100083.15;1752548;79;21051;-72
2021/07/06 09:28:38;;;;;;;9.50;5.67;;;;;;;27.95;54.40;100085.91;1771720;78;21050;-68
2021/07/06 09:31:21;;;;;;;8.75;5.50;;;;;;;28.00;53.98;100088.70;1781513;78;21079;-69
2021/07/06 09:34:07;;;;;;;9.05;5.97;;;;;;;28.03;53.21;100088.21;1777996;78;21112;-68
2021/07/06 09:36:41;;;;;;;10.55;5.47;;;;;;;28.08;53.56;100085.59;1754498;79;21294;-67
2021/07/06 09:39:14;;;;;;;7.58;5.60;;;;;;;28.09;53.76;100083.70;1758564;79;20959;-68
2021/07/06 09:41:46;;;;;;;7.47;5.70;;;;;;;28.09;53.70;100087.23;1738323;79;21082;-67
2021/07/06 09:44:26;;;;;;;7.85;5.62;;;;;;;28.09;52.64;100089.94;1759470;79;21575;-68
2021/07/06 09:46:55;;;;;;;7.00;5.83;;;;;;;28.03;52.45;100096.87;1740175;80;21070;-67
2021/07/06 09:49:26;;;;;;;9.80;6.25;;;;;;;27.93;53.15;100090.21;1760200;79;21038;-68
2021/07/06 09:51:52;;;;;;;6.28;4.85;;;;;;;27.90;53.52;100090.66;1754509;79;21047;-68
2021/07/06 09:54:35;;;;;;;8.03;5.67;;;;;;;27.90;53.43;100089.31;1750352;79;21059;-68
2021/07/06 09:57:21;;;;;;;9.50;6.50;;;;;;;27.88;53.77;100096.05;1749896;80;21541;-68
2021/07/06 09:59:58;;;;;;;12.00;5.85;;;;;;;27.89;53.73;100099.86;1743159;80;21328;-69
2021/07/06 10:02:27;;;;;;;8.30;5.72;;;;;;;27.90;53.78;100100.12;1764068;79;21542;-66
2021/07/06 10:04:55;;;;;;;9.08;6.37;;;;;;;27.95;53.81;100104.30;1745826;79;21070;-67
2021/07/06 10:07:26;;;;;;;12.20;5.97;;;;;;;28.01;53.66;100106.58;1760124;79;21043;-67
2021/07/06 10:09:53;;;;;;;7.67;5.10;;;;;;;28.01;53.72;100105.22;1750197;80;21030;-68
2021/07/06 10:12:22;;;;;;;6.53;4.85;;;;;;;27.98;53.40;100101.66;1750532;80;21219;-66
2021/07/06 10:14:49;;;;;;;7.85;4.80;;;;;;;27.96;53.52;100105.95;1747864;80;21031;-67
2021/07/06 10:17:17;;;;;;;9.48;5.00;;;;;;;28.01;53.55;100103.88;1762387;79;21052;-69
2021/07/06 10:19:46;;;;;;;6.65;4.87;;;;;;;28.04;53.28;100106.60;1762769;80;21994;-69
2021/07/06 10:22:14;;;;;;;6.75;5.55;;;;;;;28.12;53.65;100102.95;1762760;79;21047;-69
2021/07/06 10:24:44;;;;;;;11.45;5.58;;;;;;;28.26;53.86;100096.70;1760814;79;21195;-70
2021/07/06 10:27:19;;;;;;;6.80;5.20;;;;;;;28.41;53.56;100100.17;1757748;79;21066;-72
2021/07/06 10:29:45;;;;;;;8.40;4.80;;;;;;;28.46;52.74;100099.41;1759400;80;21322;-70
2021/07/06 10:32:36;;;;;;;6.67;5.35;;;;;;;28.43;52.67;100102.09;1743446;80;20992;-70
2021/07/06 10:35:03;;;;;;;9.78;5.17;;;;;;;28.41;52.03;100104.23;1761205;79;21667;-68
2021/07/06 10:37:30;;;;;;;12.30;6.10;;;;;;;28.43;52.68;100108.85;1752678;79;21088;-69
2021/07/06 10:40:23;;;;;;;9.08;5.90;;;;;;;28.48;52.90;100108.09;1739098;79;21035;-69
2021/07/06 10:42:52;;;;;;;8.38;4.72;;;;;;;28.60;52.86;100111.56;1755324;79;21047;-68
2021/07/06 10:45:28;;;;;;;6.30;4.83;;;;;;;28.73;52.95;100107.66;1754102;79;21981;-68
2021/07/06 10:47:54;;;;;;;7.00;5.30;;;;;;;28.93;52.76;100111.72;1738464;80;22139;-69
2021/07/06 10:50:36;;;;;;;6.72;4.47;;;;;;;29.15;52.29;100103.59;1741779;79;21043;-66
2021/07/06 10:53:24;;;;;;;6.58;5.08;;;;;;;29.30;51.96;100109.20;1759116;79;21070;-67
2021/07/06 10:56:10;;;;;;;6.25;4.70;;;;;;;29.45;51.65;100113.98;1745286;80;21015;-66
2021/07/06 10:58:56;;;;;;;9.33;4.77;;;;;;;29.58;51.18;100108.70;1744204;80;21039;-68
2021/07/06 11:01:46;;;;;;;8.18;4.55;;;;;;;29.63;50.87;100118.23;1754274;79;21086;-65
2021/07/06 11:04:34;;;;;;;6.45;4.50;;;;;;;29.66;50.16;100110.95;1760634;79;21209;-69
2021/07/06 11:07:01;;;;;;;6.28;4.40;;;;;;;29.68;49.72;100110.16;1749253;79;22351;-70
2021/07/06 11:09:35;;;;;;;6.28;4.50;;;;;;;29.79;49.91;100104.31;1729731;79;21079;-69
2021/07/06 11:12:26;;;;;;;5.30;3.87;;;;;;;29.97;50.69;100107.19;1754663;79;21070;-70
2021/07/06 11:15:16;;;;;;;8.30;5.10;;;;;;;30.11;49.86;100104.84;1754784;79;21031;-67
2021/07/06 11:17:46;;;;;;;6.58;4.78;;;;;;;30.19;49.30;100109.28;1750974;79;23331;-67
2021/07/06 11:20:36;;;;;;;6.05;4.37;;;;;;;30.16;49.10;100108.44;1762109;79;21134;-69
2021/07/06 11:23:03;;;;;;;6.83;4.15;;;;;;;30.06;48.27;100105.64;1759772;79;21135;-69
2021/07/06 11:25:38;;;;;;;6.28;4.60;;;;;;;29.87;48.50;100114.69;1757092;79;21054;-67
2021/07/06 11:28:25;;;;;;;7.28;4.97;;;;;;;29.71;48.97;100116.97;1757108;79;21092;-67
2021/07/06 11:30:59;;;;;;;7.97;4.70;;;;;;;29.67;49.85;100126.67;1754286;79;21532;-68
2021/07/06 11:33:39;;;;;;;6.28;4.10;;;;;;;29.71;49.80;100126.46;1774765;79;22297;-65
2021/07/06 11:36:17;;;;;;;5.92;4.10;;;;;;;29.77;49.52;100118.67;1755160;79;21046;-66
2021/07/06 11:38:45;;;;;;;5.37;3.67;;;;;;;29.85;49.48;100114.13;1755947;79;21135;-67